Aérodrome :
LOGIN :

S'inscrire | Disclaimer

   EN    FR    IT 

 










Légende :    VFR   VFR Marginal   IFR   IFR Intensif   IFR Très Intensif
Visi : 
Plafond : 
>= 8 km
>= 3000ft
5 à 8 km
1000 à 3000 ft
1500m à 5 km
500 à 1000 ft
800 à 1500m
200 à 500 ft
< 800m
< 200 ft
Symboles :   Orages  Brouillard  Fortes neiges  Fortes précipitations  Vent > 20 kt
SIGMETs :   Divers  Orages  Givrage  Turbulence  Onde Orograph.  Cendres Volcan.







- Altitude de l'aérodrome : 14 ft
- Code IATA : BRE


EDDW - Bremen Neuenland

DERNIER METAR :
  • 200820Z 06002KT 8000 NSC M05/M05 Q1018 R88/190094 NOSIG

METARs EXPIRÉS :
  • 200750Z 06003KT 040V100 7000 NSC M05/M06 Q1018 R88/190094 TEMPO 4500 BR
  • 200720Z 06003KT 7000 NSC M06/M06 Q1018 R88/190094 TEMPO 4500 BR
  • 200650Z 05004KT 7000 NSC M06/M06 Q1017 R88/190094 TEMPO 4500 BR
  • 200620Z 06003KT 4700 BR NSC M05/M06 Q1017 R88/190094 TEMPO 2500 BCFG
  • 200550Z 06003KT 9000 NSC M05/M05 Q1017 R88/190094 TEMPO 2500 BCFG

TAF TAF EDDW
Valide du 20 à 06h jusqu'au 21 à 06h UTC


200500Z 2006/2106 10004KT CAVOK
TEMPO 2006/2009 2500 BCFG
PROB40
TEMPO 2006/2009 0700 FZFG
PROB30
TEMPO 2006/2009 BKN001
PROB30
TEMPO 2023/2106 2500 BCFG
Pas de NOTAMs connus pour ce terrain.



MET'MAP, la Météo Aéronautique d'un coup d'oeil ! - Copyright ORBIFLY Décembre 2007 - Disclaimer

ORBIFLY MET'MAP TEAM :

Programmation & Développement : Alexandra Zaïnal
Conception & Développement : Baudouin d'Aumeries
Co-Programmation & Développement : Marc-Olivier Méhu
Soutien technique & logistique : Manuel Goepfert

Contact : metmap@orbifly.com




SOURCES & CREDITS :

   NOAA